< < Back
Terminal Aerodrome Forecast


Current Version              Previous Versions:   1  2  3  4  5  6  7  8  9  

Terminal Aerodrome Forecast

152
FTUS42 KCHS 211100
TAFCHS
TAF
KCHS 211124Z 2112/2212 30008KT P6SM SCT250
     FM212300 23006KT P6SM SKC=

Latest METAR

874
SAUS80 KWBC 221400 CCA
MTRCHS
METAR KCHS 221356Z 30008KT 10SM FEW040 SCT080 BKN200 26/18 A3002 RMK AO2
SLP166 T02560178


USA.gov is the U.S. government's official web portal to all federal, state and local government web resources and services.